createdAt,value
2022-12-27T00:01:53.941Z,1.19
2022-12-27T00:04:20.702Z,1.15
2022-12-27T00:06:47.551Z,1.17
2022-12-27T00:09:14.225Z,1.22
2022-12-27T00:11:40.946Z,1.22
2022-12-27T00:14:08.513Z,1.22
2022-12-27T00:16:35.372Z,1.19
2022-12-27T00:19:02.250Z,1.22
2022-12-27T00:21:29.395Z,1.16
2022-12-27T00:23:57.682Z,1.23
2022-12-27T00:26:27.447Z,1.36
2022-12-27T00:28:54.926Z,1.32
2022-12-27T00:31:23.269Z,1.34
2022-12-27T00:33:51.343Z,1.35
2022-12-27T00:36:20.745Z,1.28
2022-12-27T00:38:47.956Z,1.26
2022-12-27T00:41:14.802Z,1.25
2022-12-27T00:43:41.985Z,1.29
2022-12-27T00:46:08.830Z,1.25
2022-12-27T00:48:36.091Z,1.24
2022-12-27T00:51:07.191Z,1.28
2022-12-27T00:53:36.134Z,1.28
2022-12-27T00:56:10.353Z,1.27
2022-12-27T00:58:40.836Z,1.25
2022-12-27T01:01:11.247Z,1.17
2022-12-27T01:03:38.394Z,1.20
2022-12-27T01:06:10.834Z,1.22
2022-12-27T01:08:37.907Z,1.18
2022-12-27T01:11:05.305Z,1.25
2022-12-27T01:13:31.965Z,1.23
2022-12-27T01:15:58.590Z,1.23
2022-12-27T01:18:25.265Z,1.17
2022-12-27T01:20:52.206Z,1.05
2022-12-27T01:23:18.871Z,1.08
2022-12-27T01:25:45.579Z,1.16
2022-12-27T01:28:12.177Z,1.20
2022-12-27T01:30:38.791Z,1.28
2022-12-27T01:33:05.340Z,1.33
2022-12-27T01:35:32.042Z,1.30
2022-12-27T01:37:58.629Z,1.37
2022-12-27T01:40:25.567Z,1.46
2022-12-27T01:42:52.203Z,1.42
2022-12-27T01:45:28.876Z,1.45
2022-12-27T01:48:07.618Z,1.53
2022-12-27T01:50:38.179Z,1.47
2022-12-27T01:53:31.828Z,1.46
2022-12-27T01:56:16.200Z,1.41
2022-12-27T01:58:50.613Z,1.42
2022-12-27T02:01:44.434Z,1.44
2022-12-27T02:04:15.770Z,1.50
2022-12-27T02:06:42.791Z,1.55
2022-12-27T02:09:14.868Z,1.67
2022-12-27T02:11:53.227Z,1.66
2022-12-27T02:14:28.437Z,1.67
2022-12-27T02:16:56.894Z,1.61
2022-12-27T02:19:32.646Z,1.69
2022-12-27T02:22:15.341Z,1.69
2022-12-27T02:24:50.194Z,1.71
2022-12-27T02:27:29.406Z,1.61
2022-12-27T02:30:07.439Z,1.77
2022-12-27T02:32:55.208Z,1.71
2022-12-27T02:35:34.253Z,1.73
2022-12-27T02:38:18.182Z,1.80
2022-12-27T02:41:04.339Z,1.81
2022-12-27T02:43:51.152Z,1.80
2022-12-27T02:46:40.658Z,1.74
2022-12-27T02:49:44.733Z,1.84
2022-12-27T02:52:48.048Z,1.84
2022-12-27T02:55:42.607Z,1.87
2022-12-27T02:58:09.176Z,1.76
2022-12-27T03:01:05.607Z,1.70
2022-12-27T03:03:49.491Z,1.73
2022-12-27T03:06:37.715Z,1.76
2022-12-27T03:09:56.559Z,1.89
2022-12-27T03:13:19.688Z,2.02
2022-12-27T03:16:05.493Z,1.98
2022-12-27T03:18:47.185Z,1.91
2022-12-27T03:21:41.177Z,2.06
2022-12-27T03:24:27.349Z,2.18
2022-12-27T03:26:54.974Z,2.27
2022-12-27T03:29:41.323Z,2.32
2022-12-27T03:32:29.613Z,2.31
2022-12-27T03:35:04.533Z,2.38
2022-12-27T03:37:53.319Z,2.36
2022-12-27T03:40:33.786Z,2.24
2022-12-27T03:43:13.826Z,2.06
2022-12-27T03:46:23.609Z,2.11
2022-12-27T03:48:50.144Z,2.33
2022-12-27T03:51:21.427Z,2.52
2022-12-27T03:53:49.389Z,2.41
2022-12-27T03:56:16.105Z,2.29
2022-12-27T03:58:42.959Z,2.21
2022-12-27T04:01:09.826Z,2.41
2022-12-27T04:03:36.571Z,2.48
2022-12-27T04:06:03.249Z,2.53
2022-12-27T04:08:48.252Z,2.63
2022-12-27T04:11:33.553Z,2.63
2022-12-27T04:14:18.717Z,2.50
2022-12-27T04:17:04.270Z,2.40
2022-12-27T04:19:49.679Z,2.51
2022-12-27T04:22:34.844Z,2.75
2022-12-27T04:25:20.120Z,2.80
2022-12-27T04:28:05.551Z,2.67
2022-12-27T04:30:50.957Z,2.47
2022-12-27T04:33:36.084Z,2.40
2022-12-27T04:36:06.111Z,2.43
2022-12-27T04:38:33.339Z,2.58
2022-12-27T04:41:18.690Z,2.46
2022-12-27T04:44:04.161Z,2.44
2022-12-27T04:46:49.711Z,2.66
2022-12-27T04:49:43.082Z,2.58
2022-12-27T04:52:36.483Z,2.37
2022-12-27T04:55:24.180Z,2.36
2022-12-27T04:57:52.053Z,2.43
2022-12-27T05:00:39.325Z,2.57
2022-12-27T05:03:10.972Z,2.70
2022-12-27T05:05:38.138Z,2.55
2022-12-27T05:08:24.926Z,2.49
2022-12-27T05:11:10.426Z,2.43
2022-12-27T05:13:55.705Z,2.80
2022-12-27T05:16:22.571Z,2.61
2022-12-27T05:18:49.266Z,2.52
2022-12-27T05:21:15.991Z,2.57
2022-12-27T05:24:05.462Z,2.64
2022-12-27T05:26:32.967Z,2.61
2022-12-27T05:29:00.248Z,2.69
2022-12-27T05:31:28.208Z,2.74
2022-12-27T05:33:55.357Z,2.65
2022-12-27T05:36:22.223Z,2.58
2022-12-27T05:38:49.145Z,2.61
2022-12-27T05:41:15.881Z,2.70
2022-12-27T05:43:42.630Z,2.76
2022-12-27T05:46:12.301Z,2.75
2022-12-27T05:48:39.166Z,2.75
2022-12-27T05:51:07.938Z,2.78
2022-12-27T05:53:34.590Z,2.70
2022-12-27T05:56:01.407Z,2.68
2022-12-27T05:58:29.064Z,2.71
2022-12-27T06:00:55.880Z,2.87
2022-12-27T06:03:23.140Z,2.79
2022-12-27T06:05:50.050Z,2.73
2022-12-27T06:08:16.628Z,2.73
2022-12-27T06:10:43.237Z,2.72
2022-12-27T06:13:10.087Z,2.92
2022-12-27T06:15:37.392Z,2.73
2022-12-27T06:18:06.689Z,2.68
2022-12-27T06:20:33.266Z,2.71
2022-12-27T06:23:00.328Z,2.66
2022-12-27T06:25:26.966Z,2.64
2022-12-27T06:27:53.714Z,2.74
2022-12-27T06:30:20.552Z,2.88
2022-12-27T06:32:47.477Z,2.81
2022-12-27T06:35:14.095Z,2.88
2022-12-27T06:37:40.983Z,2.81
2022-12-27T06:40:08.092Z,2.70
2022-12-27T06:42:34.740Z,2.66
2022-12-27T06:45:01.452Z,2.68
2022-12-27T06:47:28.194Z,2.69
2022-12-27T06:49:55.889Z,2.72
2022-12-27T06:52:23.420Z,2.74
2022-12-27T06:54:50.140Z,2.75
2022-12-27T06:57:16.766Z,2.91
2022-12-27T06:59:43.388Z,2.78
2022-12-27T07:02:11.563Z,2.71
2022-12-27T07:04:38.278Z,2.76
2022-12-27T07:07:06.350Z,2.69
2022-12-27T07:09:34.426Z,2.73
2022-12-27T07:12:01.133Z,2.68
2022-12-27T07:14:27.992Z,2.67
2022-12-27T07:16:54.747Z,2.76
2022-12-27T07:19:21.517Z,2.78
2022-12-27T07:21:48.222Z,2.74
2022-12-27T07:24:14.784Z,2.75
2022-12-27T07:26:41.581Z,2.73
2022-12-27T07:29:08.224Z,2.76
2022-12-27T07:31:35.078Z,2.82
2022-12-27T07:34:03.221Z,2.87
2022-12-27T07:36:35.997Z,2.86
2022-12-27T07:39:03.085Z,2.97
2022-12-27T07:41:29.895Z,3.02
2022-12-27T07:43:56.631Z,2.97
2022-12-27T07:46:25.351Z,3.03
2022-12-27T07:48:56.506Z,3.00
2022-12-27T07:51:23.744Z,2.94
2022-12-27T07:53:51.358Z,3.08
2022-12-27T07:56:26.519Z,3.02
2022-12-27T07:58:54.882Z,2.98
2022-12-27T08:01:22.684Z,3.03
2022-12-27T08:03:49.795Z,3.13
2022-12-27T08:06:36.714Z,3.09
2022-12-27T08:09:06.263Z,3.06
2022-12-27T08:11:33.021Z,3.05
2022-12-27T08:13:59.743Z,3.09
2022-12-27T08:16:27.152Z,3.04
2022-12-27T08:18:53.984Z,3.14
2022-12-27T08:21:20.794Z,3.19
2022-12-27T08:23:47.504Z,3.41
2022-12-27T08:26:14.205Z,3.50
2022-12-27T08:28:41.012Z,3.47
2022-12-27T08:31:12.709Z,3.38
2022-12-27T08:33:41.782Z,3.51
2022-12-27T08:36:29.141Z,3.57
2022-12-27T08:38:57.364Z,3.71
2022-12-27T08:41:24.424Z,3.96
2022-12-27T08:43:51.065Z,4.04
2022-12-27T08:46:19.716Z,4.16
2022-12-27T08:48:50.310Z,4.21
2022-12-27T08:51:28.328Z,4.13
2022-12-27T08:53:58.333Z,4.14
2022-12-27T08:56:25.205Z,4.06
2022-12-27T08:58:52.251Z,4.11
2022-12-27T09:01:19.145Z,4.25
2022-12-27T09:03:46.149Z,4.66
2022-12-27T09:06:19.244Z,4.94
2022-12-27T09:08:47.551Z,5.46
2022-12-27T09:11:16.751Z,6.03
2022-12-27T09:13:43.976Z,5.72
2022-12-27T09:16:17.329Z,5.38
2022-12-27T09:18:44.107Z,5.32
2022-12-27T09:21:13.174Z,5.32
2022-12-27T09:23:40.810Z,5.61
2022-12-27T09:26:19.041Z,5.83
2022-12-27T09:28:46.818Z,5.93
2022-12-27T09:31:14.522Z,6.22
2022-12-27T09:33:41.792Z,6.19
2022-12-27T09:36:11.384Z,6.62
2022-12-27T09:38:38.191Z,7.01
2022-12-27T09:41:07.472Z,7.33
2022-12-27T09:44:01.317Z,7.42
2022-12-27T09:46:40.791Z,7.69
2022-12-27T09:49:16.980Z,8.15
2022-12-27T09:51:51.592Z,8.90
2022-12-27T09:54:24.053Z,8.71
2022-12-27T09:57:21.145Z,8.04
2022-12-27T09:59:41.392Z,8.06
2022-12-27T10:02:21.416Z,7.71
2022-12-27T10:07:56.908Z,7.09
2022-12-27T10:10:59.171Z,6.83
2022-12-27T10:13:43.294Z,6.56
2022-12-27T10:16:13.754Z,6.78
2022-12-27T10:18:43.272Z,7.00
2022-12-27T10:21:24.652Z,7.47
2022-12-27T10:24:03.953Z,7.08
2022-12-27T10:26:30.664Z,7.09
2022-12-27T10:29:31.217Z,7.09
2022-12-27T10:31:57.940Z,7.10
2022-12-27T10:34:24.950Z,6.86
2022-12-27T10:36:53.511Z,6.71
2022-12-27T10:39:21.851Z,6.62
2022-12-27T10:42:05.727Z,6.78
2022-12-27T10:44:32.474Z,6.79
2022-12-27T10:46:59.674Z,7.00
2022-12-27T10:49:31.663Z,7.15
2022-12-27T10:52:07.841Z,7.00
2022-12-27T10:54:34.814Z,6.94
2022-12-27T10:57:28.240Z,7.65
2022-12-27T11:00:13.402Z,7.18
2022-12-27T11:02:58.137Z,6.84
2022-12-27T11:05:30.012Z,6.77
2022-12-27T11:07:57.181Z,6.95
2022-12-27T11:10:30.819Z,6.65
2022-12-27T11:13:07.472Z,6.60
2022-12-27T11:15:38.560Z,6.75
2022-12-27T11:18:11.423Z,6.70
2022-12-27T11:20:40.531Z,6.85
2022-12-27T11:23:09.961Z,6.91
2022-12-27T11:25:51.672Z,6.52
2022-12-27T11:28:50.990Z,6.45
2022-12-27T11:31:20.448Z,6.52
2022-12-27T11:33:50.602Z,6.48
2022-12-27T11:36:26.991Z,6.47
2022-12-27T11:38:53.772Z,6.19
2022-12-27T11:41:31.816Z,6.10
2022-12-27T11:44:18.544Z,6.39
2022-12-27T11:46:59.357Z,6.57
2022-12-27T11:49:31.522Z,6.53
2022-12-27T11:52:20.147Z,6.56
2022-12-27T11:55:09.641Z,6.53
2022-12-27T11:57:55.052Z,6.27
2022-12-27T12:00:29.302Z,6.37
2022-12-27T12:03:11.062Z,6.40
2022-12-27T12:06:07.480Z,6.28
2022-12-27T12:09:02.353Z,6.20
2022-12-27T12:11:32.022Z,6.00
2022-12-27T12:14:40.354Z,5.85
2022-12-27T12:17:19.403Z,5.73
2022-12-27T12:20:04.993Z,5.85
2022-12-27T12:22:55.091Z,6.19
2022-12-27T12:25:47.486Z,5.94
2022-12-27T12:28:59.189Z,5.66
2022-12-27T12:31:47.947Z,5.46
2022-12-27T12:34:37.323Z,5.47
2022-12-27T12:37:03.985Z,5.49
2022-12-27T12:39:56.300Z,5.52
2022-12-27T12:42:47.887Z,5.40
2022-12-27T12:45:26.469Z,5.46
2022-12-27T12:48:24.603Z,5.58
2022-12-27T12:51:06.109Z,5.79
2022-12-27T12:54:01.390Z,5.75
2022-12-27T12:56:42.957Z,5.68
2022-12-27T12:59:40.718Z,5.42
2022-12-27T13:02:22.959Z,5.55
2022-12-27T13:04:52.748Z,5.46
2022-12-27T13:07:44.400Z,5.35
2022-12-27T13:10:33.084Z,5.26
2022-12-27T13:12:59.827Z,5.05
2022-12-27T13:15:44.913Z,5.08
2022-12-27T13:18:30.362Z,5.11
2022-12-27T13:21:10.589Z,5.08
2022-12-27T13:24:00.463Z,5.37
2022-12-27T13:26:35.617Z,5.40
2022-12-27T13:29:28.741Z,5.17
2022-12-27T13:32:16.452Z,5.10
2022-12-27T13:34:46.109Z,5.03
2022-12-27T13:37:28.007Z,5.02
2022-12-27T13:40:25.569Z,4.98
2022-12-27T13:43:26.283Z,4.98
2022-12-27T13:46:01.987Z,4.88
2022-12-27T13:49:06.199Z,4.78
2022-12-27T13:51:46.366Z,4.65
2022-12-27T13:54:55.040Z,4.70
2022-12-27T13:57:44.439Z,4.58
2022-12-27T14:00:21.704Z,4.42
2022-12-27T14:03:15.890Z,4.13
2022-12-27T14:05:57.926Z,4.28
2022-12-27T14:09:02.084Z,4.15
2022-12-27T14:11:54.034Z,4.12
2022-12-27T14:14:21.964Z,4.17
2022-12-27T14:17:14.866Z,4.12
2022-12-27T14:19:53.591Z,4.14
2022-12-27T14:22:38.249Z,3.98
2022-12-27T14:25:46.889Z,4.01
2022-12-27T14:28:24.278Z,3.88
2022-12-27T14:31:12.838Z,3.82
2022-12-27T14:33:59.710Z,3.94
2022-12-27T14:36:41.323Z,3.75
2022-12-27T14:39:28.233Z,3.93
2022-12-27T14:42:03.109Z,4.52
2022-12-27T14:45:09.288Z,4.73
2022-12-27T14:47:41.669Z,4.79
2022-12-27T14:50:30.104Z,4.75
2022-12-27T14:53:18.308Z,4.72
2022-12-27T14:55:56.904Z,4.57
2022-12-27T14:58:50.854Z,4.48
2022-12-27T15:01:23.341Z,4.42
2022-12-27T15:04:03.429Z,4.54
2022-12-27T15:06:45.311Z,4.63
2022-12-27T15:09:18.058Z,4.83
2022-12-27T15:11:57.223Z,4.91
2022-12-27T15:14:46.024Z,4.69
2022-12-27T15:17:21.712Z,4.77
2022-12-27T15:19:54.812Z,4.85
2022-12-27T15:22:50.505Z,4.49
2022-12-27T15:25:29.073Z,4.60
2022-12-27T15:28:08.285Z,3.99
2022-12-27T15:30:55.492Z,3.58
2022-12-27T15:33:36.822Z,3.54
2022-12-27T15:36:08.827Z,3.69
2022-12-27T15:38:35.489Z,3.60
2022-12-27T15:41:08.254Z,3.67
2022-12-27T15:43:50.170Z,3.68
2022-12-27T15:46:36.643Z,3.64
2022-12-27T15:49:12.628Z,3.42
2022-12-27T15:52:28.517Z,3.41
2022-12-27T15:55:15.071Z,3.34
2022-12-27T15:57:48.842Z,3.16
2022-12-27T16:00:24.792Z,3.02
2022-12-27T16:03:00.075Z,2.96
2022-12-27T16:05:40.342Z,3.03
2022-12-27T16:08:10.114Z,3.06
2022-12-27T16:10:42.853Z,3.12
2022-12-27T16:13:09.550Z,3.19
2022-12-27T16:15:47.838Z,3.03
2022-12-27T16:18:23.894Z,2.90
2022-12-27T16:21:04.407Z,2.84
2022-12-27T16:23:52.701Z,2.77
2022-12-27T16:26:27.450Z,2.77
2022-12-27T16:29:05.460Z,2.80
2022-12-27T16:31:36.068Z,2.71
2022-12-27T16:34:24.547Z,2.77
2022-12-27T16:36:53.383Z,2.75
2022-12-27T16:39:38.623Z,2.72
2022-12-27T16:42:07.482Z,2.75
2022-12-27T16:44:53.341Z,2.71
2022-12-27T16:47:41.603Z,2.68
2022-12-27T16:50:23.410Z,2.85
2022-12-27T16:52:55.998Z,2.47
2022-12-27T16:55:28.781Z,2.27
2022-12-27T16:58:18.023Z,2.20
2022-12-27T17:00:46.409Z,1.95
2022-12-27T17:03:21.124Z,1.82
2022-12-27T17:08:41.040Z,1.57
2022-12-27T17:11:25.411Z,1.58
2022-12-27T17:14:08.982Z,1.63
2022-12-27T17:16:45.910Z,1.67
2022-12-27T17:19:34.937Z,1.67
2022-12-27T17:22:03.948Z,1.65
2022-12-27T17:24:30.812Z,1.52
2022-12-27T17:27:19.245Z,1.39
2022-12-27T17:30:20.505Z,1.41
2022-12-27T17:33:14.025Z,1.43
2022-12-27T17:36:02.790Z,1.76
2022-12-27T17:38:32.857Z,1.99
2022-12-27T17:41:16.061Z,2.01
2022-12-27T17:44:13.744Z,2.18
2022-12-27T17:47:05.608Z,2.27
2022-12-27T17:49:34.693Z,2.30
2022-12-27T17:52:20.456Z,1.81
2022-12-27T17:55:05.514Z,1.70
2022-12-27T17:57:51.093Z,1.63
2022-12-27T18:00:31.749Z,1.50
2022-12-27T18:03:02.201Z,1.49
2022-12-27T18:05:31.631Z,1.43
2022-12-27T18:08:16.814Z,1.46
2022-12-27T18:10:43.618Z,1.50
2022-12-27T18:13:17.539Z,1.55
2022-12-27T18:15:45.941Z,1.56
2022-12-27T18:18:22.509Z,1.55
2022-12-27T18:20:57.775Z,1.31
2022-12-27T18:23:24.603Z,1.20
2022-12-27T18:25:54.812Z,1.21
2022-12-27T18:28:33.470Z,1.20
2022-12-27T18:31:05.592Z,1.01
2022-12-27T18:33:34.933Z,1.21
2022-12-27T18:36:04.340Z,1.07
2022-12-27T18:38:36.111Z,1.04
2022-12-27T18:41:09.786Z,0.94
2022-12-27T18:43:37.701Z,0.97
2022-12-27T18:46:05.140Z,0.89
2022-12-27T18:48:35.079Z,0.86
2022-12-27T18:51:03.016Z,0.81
2022-12-27T18:53:38.559Z,0.81
2022-12-27T18:56:16.213Z,0.81
2022-12-27T18:59:18.039Z,0.65
2022-12-27T19:01:46.566Z,0.54
2022-12-27T19:04:19.324Z,0.59
2022-12-27T19:06:58.174Z,0.44
2022-12-27T19:09:34.596Z,0.36
2022-12-27T19:12:04.014Z,0.54
2022-12-27T19:14:38.042Z,0.61
2022-12-27T19:17:10.738Z,0.69
2022-12-27T19:19:38.084Z,0.78
2022-12-27T19:22:35.392Z,0.86
2022-12-27T19:25:22.174Z,0.80
2022-12-27T19:28:00.818Z,0.61
2022-12-27T19:30:34.354Z,0.81
2022-12-27T19:33:03.147Z,0.68
2022-12-27T19:35:29.838Z,0.60
2022-12-27T19:37:57.448Z,0.64
2022-12-27T19:40:24.494Z,0.50
2022-12-27T19:42:51.276Z,0.46
2022-12-27T19:45:19.369Z,0.35
2022-12-27T19:47:48.411Z,0.43
2022-12-27T19:50:15.435Z,0.48
2022-12-27T19:52:42.146Z,0.51
2022-12-27T19:55:12.883Z,0.50
2022-12-27T19:57:40.648Z,0.45
2022-12-27T20:00:26.828Z,0.45
2022-12-27T20:02:53.690Z,0.42
2022-12-27T20:06:12.474Z,0.43
2022-12-27T20:08:23.657Z,0.37
2022-12-27T20:10:50.484Z,0.29
2022-12-27T20:13:17.203Z,0.27
2022-12-27T20:15:44.174Z,0.27
2022-12-27T20:18:12.055Z,0.22
2022-12-27T20:20:39.350Z,0.27
2022-12-27T20:23:05.975Z,0.09
2022-12-27T20:25:33.424Z,0.10
2022-12-27T20:28:00.176Z,0.11
2022-12-27T20:30:26.871Z,0.13
2022-12-27T20:32:53.650Z,0.16
2022-12-27T20:35:20.267Z,0.15
2022-12-27T20:37:47.021Z,0.08
2022-12-27T20:40:13.696Z,0.01
2022-12-27T20:42:40.543Z,0.00
2022-12-27T20:45:07.865Z,-0.06
2022-12-27T20:47:34.571Z,0.04
2022-12-27T20:50:01.304Z,-0.04
2022-12-27T20:52:31.163Z,-0.14
2022-12-27T20:54:58.166Z,-0.11
2022-12-27T20:57:24.820Z,-0.14
2022-12-27T20:59:52.241Z,-0.03
2022-12-27T21:02:19.828Z,0.06
2022-12-27T21:04:46.773Z,0.13
2022-12-27T21:07:13.543Z,0.18
2022-12-27T21:09:40.268Z,0.23
2022-12-27T21:12:07.127Z,0.16
2022-12-27T21:14:34.136Z,0.16
2022-12-27T21:17:00.947Z,0.16
2022-12-27T21:19:27.678Z,0.09
2022-12-27T21:21:54.432Z,0.15
2022-12-27T21:24:21.277Z,0.16
2022-12-27T21:26:53.244Z,0.16
2022-12-27T21:29:22.972Z,0.13
2022-12-27T21:31:49.823Z,0.12
2022-12-27T21:34:16.780Z,0.22
2022-12-27T21:36:43.562Z,0.11
2022-12-27T21:39:10.510Z,0.13
2022-12-27T21:41:40.744Z,0.14
2022-12-27T21:44:07.620Z,0.02
2022-12-27T21:46:39.692Z,0.11
2022-12-27T21:49:13.193Z,0.07
2022-12-27T21:51:41.394Z,-0.04
2022-12-27T21:54:09.203Z,0.00
2022-12-27T21:56:35.832Z,0.01
2022-12-27T21:59:05.539Z,0.04
2022-12-27T22:01:51.502Z,-0.07
2022-12-27T22:04:20.432Z,-0.04
2022-12-27T22:06:47.888Z,-0.04
2022-12-27T22:09:15.492Z,-0.09
2022-12-27T22:11:42.270Z,0.00
2022-12-27T22:14:08.893Z,-0.09
2022-12-27T22:16:37.902Z,-0.19
2022-12-27T22:19:09.950Z,-0.16
2022-12-27T22:21:37.341Z,-0.12
2022-12-27T22:24:04.649Z,-0.10
2022-12-27T22:26:33.789Z,-0.15
2022-12-27T22:29:00.555Z,-0.17
2022-12-27T22:31:31.239Z,-0.21
2022-12-27T22:33:57.865Z,-0.23
2022-12-27T22:36:26.396Z,-0.19
2022-12-27T22:38:55.269Z,-0.25
2022-12-27T22:41:27.167Z,-0.27
2022-12-27T22:43:59.168Z,-0.37
2022-12-27T22:46:26.971Z,-0.43
2022-12-27T22:48:56.423Z,-0.39
2022-12-27T22:51:26.377Z,-0.42
2022-12-27T22:53:53.951Z,-0.46
2022-12-27T22:56:22.800Z,-0.63
2022-12-27T22:58:49.727Z,-0.64
2022-12-27T23:01:22.444Z,-0.76
2022-12-27T23:03:49.873Z,-0.65
2022-12-27T23:06:17.118Z,-0.66
2022-12-27T23:08:44.778Z,-0.70
2022-12-27T23:11:24.154Z,-0.64
2022-12-27T23:13:57.039Z,-0.65
2022-12-27T23:16:25.622Z,-0.74
2022-12-27T23:18:52.580Z,-0.93
2022-12-27T23:21:24.381Z,-0.81
2022-12-27T23:23:52.513Z,-0.77
2022-12-27T23:26:21.335Z,-0.78
2022-12-27T23:28:48.794Z,-0.84
2022-12-27T23:31:15.842Z,-1.01
2022-12-27T23:33:43.626Z,-0.97
2022-12-27T23:36:12.119Z,-0.89
2022-12-27T23:38:39.352Z,-0.96
2022-12-27T23:41:12.957Z,-0.93
2022-12-27T23:43:56.243Z,-0.88
2022-12-27T23:46:33.317Z,-0.87
2022-12-27T23:49:01.666Z,-0.86
2022-12-27T23:51:29.297Z,-0.91
2022-12-27T23:53:55.949Z,-0.96
2022-12-27T23:56:28.201Z,-1.00
2022-12-27T23:58:56.400Z,-0.96
